Time;durP1;ratioP1;P1;durP2;ratioP2;P2;SDS_P1;SDS_P2;PMS_P1;PMS_P2;Temp;Humidity;BMP_temperature;BMP_pressure;BME280_temperature;BME280_humidity;BME280_pressure;Samples;Min_cycle;Max_cycle;Signal;HPM_P1;HPM_P2
2022/12/29 00:00:49;;;;;;;0.00;0.00;;;11.20;99.90;;;;;;5051697;28;20202;-63
2022/12/29 00:03:14;;;;;;;0.00;0.00;;;11.20;99.90;;;;;;5050122;28;20181;-65
2022/12/29 00:05:40;;;;;;;0.00;0.00;;;11.30;99.90;;;;;;5051463;28;20227;-67
2022/12/29 00:08:06;;;;;;;0.00;0.00;;;11.20;99.90;;;;;;5050810;28;20216;-69
2022/12/29 00:10:32;;;;;;;0.00;0.00;;;11.30;99.90;;;;;;5048990;28;20196;-65
2022/12/29 00:15:42;;;;;;;0.00;0.00;;;11.40;99.90;;;;;;5053462;28;20235;-65
2022/12/29 00:18:08;;;;;;;0.00;0.00;;;11.40;99.90;;;;;;5051599;28;20177;-65
2022/12/29 00:37:05;;;;;;;0.00;0.00;;;12.40;99.90;;;;;;5050712;28;20183;-65
2022/12/29 00:44:58;;;;;;;0.00;0.00;;;12.20;99.90;;;;;;5050967;28;20706;-66
2022/12/29 00:47:24;;;;;;;0.00;0.00;;;12.10;99.90;;;;;;5050942;28;20178;-66
2022/12/29 00:49:49;;;;;;;0.00;0.00;;;12.00;99.90;;;;;;5051486;28;20291;-66
2022/12/29 00:52:15;;;;;;;0.00;0.00;;;11.90;99.90;;;;;;5050467;28;20218;-66
2022/12/29 00:54:41;;;;;;;0.00;0.00;;;11.90;99.90;;;;;;5051057;28;20280;-65
2022/12/29 00:57:09;;;;;;;0.00;0.00;;;11.80;99.90;;;;;;5050801;28;20177;-65
2022/12/29 00:59:39;;;;;;;0.00;0.00;;;11.80;99.90;;;;;;5053098;28;20602;-66
2022/12/29 01:02:05;;;;;;;0.00;0.00;;;11.70;99.90;;;;;;5054688;28;20181;-66
2022/12/29 01:04:31;;;;;;;0.00;0.00;;;11.70;99.90;;;;;;5058566;28;20178;-66
2022/12/29 01:06:56;;;;;;;0.00;0.00;;;11.70;99.90;;;;;;5054305;28;20185;-66
2022/12/29 01:12:09;;;;;;;0.00;0.00;;;12.00;99.90;;;;;;5054326;28;20263;-65
2022/12/29 01:14:35;;;;;;;0.00;0.00;;;12.20;99.90;;;;;;5054873;28;20178;-65
2022/12/29 01:17:01;;;;;;;0.00;0.00;;;12.30;99.90;;;;;;5054262;28;20548;-65
2022/12/29 01:19:26;;;;;;;0.00;0.00;;;12.30;99.90;;;;;;5054541;28;20170;-66
2022/12/29 01:21:52;;;;;;;0.00;0.00;;;12.20;99.90;;;;;;5054073;28;20189;-65
2022/12/29 01:24:19;;;;;;;0.00;0.00;;;12.10;99.90;;;;;;5054111;28;20188;-65
2022/12/29 01:26:45;;;;;;;0.00;0.00;;;12.00;99.90;;;;;;5049474;28;20259;-65
2022/12/29 01:29:10;;;;;;;0.10;0.10;;;11.90;99.90;;;;;;5054086;28;20629;-65
2022/12/29 01:31:36;;;;;;;0.00;0.00;;;11.80;99.90;;;;;;5054603;28;20205;-65
2022/12/29 01:34:02;;;;;;;0.00;0.00;;;11.70;99.90;;;;;;5054021;28;20181;-65
2022/12/29 01:36:27;;;;;;;0.35;0.30;;;11.60;99.90;;;;;;5054519;28;20177;-65
2022/12/29 01:38:53;;;;;;;0.05;0.05;;;11.50;99.90;;;;;;5053612;28;20173;-65
2022/12/29 01:41:19;;;;;;;0.00;0.00;;;11.40;99.90;;;;;;5053656;28;20181;-65
2022/12/29 01:43:53;;;;;;;0.00;0.00;;;11.30;99.90;;;;;;5054102;28;20640;-65
2022/12/29 01:46:38;;;;;;;0.00;0.00;;;11.20;99.90;;;;;;5061456;28;20234;-65
2022/12/29 01:49:23;;;;;;;0.00;0.00;;;11.20;99.90;;;;;;5051366;28;20710;-65
2022/12/29 01:51:53;;;;;;;0.00;0.00;;;11.10;99.90;;;;;;5053796;28;20213;-65
2022/12/29 01:54:36;;;;;;;0.03;0.03;;;11.10;99.90;;;;;;5053699;28;20185;-66
2022/12/29 01:57:06;;;;;;;0.00;0.00;;;11.10;99.90;;;;;;5053642;28;20641;-65
2022/12/29 01:59:37;;;;;;;0.00;0.00;;;11.10;99.90;;;;;;5053685;28;20209;-66
2022/12/29 02:02:04;;;;;;;0.00;0.00;;;11.10;99.90;;;;;;5053681;28;20323;-65
2022/12/29 02:04:32;;;;;;;0.55;0.55;;;11.10;99.90;;;;;;5053370;28;20191;-68
2022/12/29 02:07:02;;;;;;;0.00;0.00;;;11.00;99.90;;;;;;5053339;28;20206;-66
2022/12/29 02:09:28;;;;;;;0.00;0.00;;;11.00;99.90;;;;;;5052527;28;20189;-66
2022/12/29 02:11:54;;;;;;;0.00;0.00;;;11.00;99.90;;;;;;5052176;28;20236;-66
2022/12/29 02:14:19;;;;;;;0.00;0.00;;;11.00;99.90;;;;;;5053619;28;20174;-66
2022/12/29 02:17:26;;;;;;;0.10;0.10;;;10.90;99.90;;;;;;5053417;28;20221;-66
2022/12/29 02:20:23;;;;;;;0.00;0.00;;;10.90;99.90;;;;;;5040354;28;20190;-66
2022/12/29 02:23:16;;;;;;;0.00;0.00;;;10.90;99.90;;;;;;5047881;28;20185;-66
2022/12/29 02:26:11;;;;;;;0.00;0.00;;;10.90;99.90;;;;;;5053343;28;20641;-66
2022/12/29 02:29:07;;;;;;;0.00;0.00;;;10.90;99.90;;;;;;5051043;28;20181;-66
2022/12/29 02:31:45;;;;;;;0.00;0.00;;;10.90;99.90;;;;;;5052948;28;20279;-66
2022/12/29 02:34:48;;;;;;;0.00;0.00;;;11.00;99.90;;;;;;5053234;28;20189;-66
2022/12/29 02:37:26;;;;;;;0.00;0.00;;;11.10;99.90;;;;;;5052471;28;20216;-66
2022/12/29 02:39:59;;;;;;;0.00;0.00;;;11.20;99.90;;;;;;5039494;28;20185;-66
2022/12/29 02:42:35;;;;;;;0.00;0.00;;;11.30;99.90;;;;;;5052674;28;20637;-66
2022/12/29 02:45:26;;;;;;;0.00;0.00;;;11.40;99.90;;;;;;5052616;28;20188;-66
2022/12/29 02:48:10;;;;;;;0.00;0.00;;;11.50;99.90;;;;;;5039139;28;20188;-66
2022/12/29 02:50:48;;;;;;;0.00;0.00;;;11.50;99.90;;;;;;5052614;28;20671;-66
2022/12/29 02:53:17;;;;;;;0.00;0.00;;;11.50;99.90;;;;;;5052252;28;20536;-66
2022/12/29 02:55:49;;;;;;;0.00;0.00;;;11.50;99.90;;;;;;5036932;28;20201;-66
2022/12/29 02:58:21;;;;;;;0.00;0.00;;;11.60;99.90;;;;;;5041211;28;20182;-66
2022/12/29 03:01:13;;;;;;;0.00;0.00;;;11.50;99.90;;;;;;5052581;28;20174;-66
2022/12/29 03:03:58;;;;;;;0.00;0.00;;;11.60;99.90;;;;;;5052448;28;20544;-66
2022/12/29 03:06:55;;;;;;;0.00;0.00;;;11.60;99.90;;;;;;5052843;28;20641;-66
2022/12/29 03:09:40;;;;;;;0.00;0.00;;;11.60;99.90;;;;;;5042326;28;20200;-66
2022/12/29 03:18:34;;;;;;;0.00;0.00;;;11.50;99.90;;;;;;5044590;28;20299;-66
2022/12/29 03:21:11;;;;;;;0.00;0.00;;;11.50;99.90;;;;;;5050584;28;20711;-66
2022/12/29 03:23:39;;;;;;;0.00;0.00;;;11.50;99.90;;;;;;5051860;28;20182;-66
2022/12/29 03:26:10;;;;;;;0.00;0.00;;;11.50;99.90;;;;;;5051575;28;20184;-66
2022/12/29 03:28:52;;;;;;;0.00;0.00;;;11.50;99.90;;;;;;5052013;28;20181;-66
2022/12/29 03:31:19;;;;;;;0.00;0.00;;;11.50;99.90;;;;;;5051807;28;20223;-66
2022/12/29 03:33:46;;;;;;;0.00;0.00;;;11.50;99.90;;;;;;5051974;28;20185;-66
2022/12/29 03:36:23;;;;;;;0.00;0.00;;;11.50;99.90;;;;;;5051930;28;20608;-66
2022/12/29 03:38:59;;;;;;;0.20;0.20;;;11.50;99.90;;;;;;5051587;28;20204;-66
2022/12/29 03:41:28;;;;;;;0.00;0.00;;;11.50;99.90;;;;;;5052042;28;20177;-66
2022/12/29 03:43:53;;;;;;;0.00;0.00;;;11.50;99.90;;;;;;5051467;28;20189;-66
2022/12/29 03:46:19;;;;;;;0.00;0.00;;;11.60;99.90;;;;;;5052187;28;20229;-66
2022/12/29 03:48:45;;;;;;;0.00;0.00;;;11.60;99.90;;;;;;5051327;28;20628;-66
2022/12/29 03:51:10;;;;;;;0.00;0.00;;;11.60;99.90;;;;;;5051435;28;20252;-66
2022/12/29 03:53:36;;;;;;;0.00;0.00;;;11.60;99.90;;;;;;5051799;28;20276;-66
2022/12/29 03:56:02;;;;;;;0.00;0.00;;;11.60;99.90;;;;;;5051085;28;20220;-66
2022/12/29 03:58:27;;;;;;;0.00;0.00;;;11.50;99.90;;;;;;5051563;28;20185;-66
2022/12/29 04:00:53;;;;;;;0.00;0.00;;;11.50;99.90;;;;;;5051766;28;20268;-67
2022/12/29 04:03:18;;;;;;;0.00;0.00;;;11.50;99.90;;;;;;5051136;28;20223;-67
2022/12/29 04:05:44;;;;;;;0.00;0.00;;;11.50;99.90;;;;;;5051311;28;20184;-67
2022/12/29 04:08:09;;;;;;;0.00;0.00;;;11.50;99.90;;;;;;5051559;28;20177;-67
2022/12/29 04:10:35;;;;;;;0.00;0.00;;;11.50;99.90;;;;;;5051017;28;20178;-67
2022/12/29 04:13:00;;;;;;;0.00;0.00;;;11.50;99.90;;;;;;5050963;28;20221;-67
2022/12/29 04:15:26;;;;;;;0.00;0.00;;;11.60;99.90;;;;;;5051673;28;20185;-67
2022/12/29 04:17:51;;;;;;;0.00;0.00;;;11.50;99.90;;;;;;5050811;28;20544;-67
2022/12/29 04:23:03;;;;;;;0.00;0.00;;;11.50;99.90;;;;;;5051565;28;20196;-67
2022/12/29 04:25:28;;;;;;;0.00;0.00;;;11.50;99.90;;;;;;5051204;28;20311;-66
2022/12/29 04:27:54;;;;;;;0.00;0.00;;;11.50;99.90;;;;;;5050937;28;20268;-67
2022/12/29 04:30:19;;;;;;;0.00;0.00;;;11.50;99.90;;;;;;5051733;28;20193;-67
2022/12/29 04:32:45;;;;;;;0.00;0.00;;;11.50;99.90;;;;;;5051728;28;20220;-67
2022/12/29 04:35:10;;;;;;;0.00;0.00;;;11.50;99.90;;;;;;5055492;28;20196;-67
2022/12/29 04:37:36;;;;;;;0.00;0.00;;;11.60;99.90;;;;;;5055256;28;20190;-66
2022/12/29 04:40:01;;;;;;;0.00;0.00;;;11.70;99.90;;;;;;5054915;28;20178;-67
2022/12/29 04:42:27;;;;;;;0.00;0.00;;;11.70;99.90;;;;;;5055308;28;20633;-67
2022/12/29 04:44:52;;;;;;;0.00;0.00;;;11.80;99.90;;;;;;5055143;28;20633;-67
2022/12/29 04:47:18;;;;;;;0.00;0.00;;;11.80;99.90;;;;;;5055043;28;20297;-67
2022/12/29 04:49:43;;;;;;;0.00;0.00;;;11.80;99.90;;;;;;5054770;28;20659;-67
2022/12/29 04:52:09;;;;;;;0.00;0.00;;;11.70;99.90;;;;;;5054724;28;20215;-67
2022/12/29 04:54:34;;;;;;;0.00;0.00;;;11.70;99.90;;;;;;5053451;28;20201;-66
2022/12/29 04:57:00;;;;;;;0.00;0.00;;;11.70;99.90;;;;;;5054430;28;20177;-67
2022/12/29 04:59:25;;;;;;;0.00;0.00;;;11.70;99.90;;;;;;5054662;28;20187;-66
2022/12/29 05:01:51;;;;;;;0.00;0.00;;;11.70;99.90;;;;;;5054199;28;20196;-67
2022/12/29 05:04:17;;;;;;;0.00;0.00;;;11.70;99.90;;;;;;5054662;28;20257;-67
2022/12/29 05:06:42;;;;;;;0.00;0.00;;;11.70;99.90;;;;;;5054807;28;20187;-66
2022/12/29 05:09:08;;;;;;;0.00;0.00;;;11.70;99.90;;;;;;5054346;28;20177;-67
2022/12/29 05:11:34;;;;;;;0.00;0.00;;;11.70;99.90;;;;;;5054290;28;20319;-66
2022/12/29 05:13:59;;;;;;;0.00;0.00;;;11.70;99.90;;;;;;5054244;28;20548;-66
2022/12/29 05:16:25;;;;;;;0.00;0.00;;;11.70;99.90;;;;;;5054658;28;20186;-66
2022/12/29 05:18:50;;;;;;;0.00;0.00;;;11.70;99.90;;;;;;5054081;28;20185;-67
2022/12/29 05:21:16;;;;;;;0.00;0.00;;;11.70;99.90;;;;;;5054274;28;20178;-66
2022/12/29 05:23:41;;;;;;;0.00;0.00;;;11.80;99.90;;;;;;5054309;28;20174;-66
2022/12/29 05:26:07;;;;;;;0.00;0.00;;;11.90;99.90;;;;;;5054979;28;20178;-66
2022/12/29 05:28:33;;;;;;;0.00;0.00;;;12.00;99.90;;;;;;5054295;28;20186;-66
2022/12/29 05:30:58;;;;;;;0.00;0.00;;;12.00;99.90;;;;;;5053802;28;20228;-66
2022/12/29 05:33:24;;;;;;;0.00;0.00;;;12.00;99.90;;;;;;5053837;28;20591;-66
2022/12/29 05:35:49;;;;;;;0.00;0.00;;;12.00;99.90;;;;;;5053948;28;21321;-66
2022/12/29 05:38:15;;;;;;;0.00;0.00;;;12.00;99.90;;;;;;5054007;28;20217;-66
2022/12/29 05:40:40;;;;;;;0.00;0.00;;;12.00;99.90;;;;;;5053731;28;20180;-66
2022/12/29 05:43:06;;;;;;;0.00;0.00;;;12.00;99.90;;;;;;5053592;28;20204;-66
2022/12/29 05:45:31;;;;;;;0.00;0.00;;;12.00;99.90;;;;;;5051932;28;20598;-66
2022/12/29 05:47:57;;;;;;;0.00;0.00;;;12.00;99.90;;;;;;5053403;28;20637;-66
2022/12/29 05:50:22;;;;;;;0.13;0.13;;;12.00;99.90;;;;;;5053509;28;20596;-67
2022/12/29 05:52:48;;;;;;;0.00;0.00;;;12.00;99.90;;;;;;5052360;28;20221;-66
2022/12/29 05:55:14;;;;;;;0.00;0.00;;;12.10;99.90;;;;;;5053412;28;20503;-66
2022/12/29 05:57:39;;;;;;;0.00;0.00;;;12.10;99.90;;;;;;5053785;28;20219;-66
2022/12/29 06:00:06;;;;;;;0.00;0.00;;;12.10;99.90;;;;;;5053191;28;20233;-66
2022/12/29 06:02:32;;;;;;;0.00;0.00;;;12.20;99.90;;;;;;5054004;28;20640;-67
2022/12/29 06:04:57;;;;;;;0.00;0.00;;;12.20;99.90;;;;;;5053482;28;20226;-67
2022/12/29 06:07:23;;;;;;;0.00;0.00;;;12.20;99.90;;;;;;5053576;28;20190;-67
2022/12/29 06:09:48;;;;;;;0.00;0.00;;;12.20;99.90;;;;;;5053413;28;20537;-67
2022/12/29 06:12:14;;;;;;;0.00;0.00;;;12.20;99.90;;;;;;5052435;28;20260;-67
2022/12/29 06:14:39;;;;;;;0.10;0.10;;;12.10;99.90;;;;;;5053159;28;20182;-67
2022/12/29 06:17:05;;;;;;;0.00;0.00;;;12.10;99.90;;;;;;5051874;28;20185;-67
2022/12/29 06:19:31;;;;;;;0.00;0.00;;;12.10;99.90;;;;;;5053224;28;20193;-67
2022/12/29 06:21:56;;;;;;;0.00;0.00;;;12.10;99.90;;;;;;5052936;28;20182;-67
2022/12/29 06:24:22;;;;;;;0.00;0.00;;;12.20;99.90;;;;;;5053159;28;20169;-66
2022/12/29 06:26:47;;;;;;;0.00;0.00;;;12.20;99.90;;;;;;5052639;28;20181;-66
2022/12/29 06:29:16;;;;;;;0.00;0.00;;;12.20;99.90;;;;;;5053243;28;20190;-67
2022/12/29 06:31:45;;;;;;;0.00;0.00;;;12.20;99.90;;;;;;5052928;28;20424;-67
2022/12/29 06:34:11;;;;;;;0.20;0.20;;;12.20;99.90;;;;;;5052797;28;20175;-67
2022/12/29 06:36:36;;;;;;;0.00;0.00;;;12.20;99.90;;;;;;5053345;28;20189;-66
2022/12/29 06:39:02;;;;;;;0.00;0.00;;;12.20;99.90;;;;;;5052912;28;20185;-67
2022/12/29 06:41:28;;;;;;;0.00;0.00;;;12.20;99.90;;;;;;5052784;28;20177;-67
2022/12/29 06:43:53;;;;;;;0.00;0.00;;;12.20;99.90;;;;;;5053061;28;20181;-67
2022/12/29 06:46:19;;;;;;;0.00;0.00;;;12.20;99.90;;;;;;5051340;28;20181;-67
2022/12/29 06:48:44;;;;;;;0.00;0.00;;;12.20;99.90;;;;;;5052847;28;20281;-66
2022/12/29 06:51:10;;;;;;;0.00;0.00;;;12.30;99.90;;;;;;5052456;28;20208;-67
2022/12/29 06:53:35;;;;;;;0.00;0.00;;;12.30;99.90;;;;;;5052957;28;20173;-66
2022/12/29 06:56:01;;;;;;;0.00;0.00;;;12.30;99.90;;;;;;5051146;28;20234;-67
2022/12/29 06:58:26;;;;;;;0.00;0.00;;;12.30;99.90;;;;;;5052267;28;20189;-67
2022/12/29 07:00:52;;;;;;;0.00;0.00;;;12.40;99.90;;;;;;5052458;28;20181;-67
2022/12/29 07:03:17;;;;;;;0.00;0.00;;;12.40;99.90;;;;;;5052481;28;20186;-66
2022/12/29 07:05:43;;;;;;;0.00;0.00;;;12.50;99.90;;;;;;5052591;28;20201;-66
2022/12/29 07:08:08;;;;;;;0.00;0.00;;;12.60;99.90;;;;;;5052487;28;20276;-66
2022/12/29 07:10:34;;;;;;;0.00;0.00;;;12.60;99.90;;;;;;5051902;28;20180;-67
2022/12/29 07:12:59;;;;;;;0.00;0.00;;;12.60;99.90;;;;;;5051956;28;20220;-66
2022/12/29 07:15:25;;;;;;;0.00;0.00;;;12.50;99.90;;;;;;5052711;28;20598;-66
2022/12/29 07:17:51;;;;;;;0.00;0.00;;;12.50;99.90;;;;;;5051910;28;20187;-67
2022/12/29 07:20:17;;;;;;;0.00;0.00;;;12.50;99.90;;;;;;5052147;28;20174;-65
2022/12/29 07:22:43;;;;;;;0.00;0.00;;;12.50;99.90;;;;;;5052246;28;20235;-68
2022/12/29 07:25:08;;;;;;;0.00;0.00;;;12.50;99.90;;;;;;5051041;28;20178;-68
2022/12/29 07:27:34;;;;;;;0.00;0.00;;;12.50;99.90;;;;;;5052216;28;20203;-67
2022/12/29 07:30:00;;;;;;;0.00;0.00;;;12.50;99.90;;;;;;5052409;28;20177;-67
2022/12/29 07:32:25;;;;;;;0.00;0.00;;;12.50;99.90;;;;;;5052533;28;20220;-67
2022/12/29 07:34:51;;;;;;;0.00;0.00;;;12.60;99.90;;;;;;5051926;28;20652;-67
2022/12/29 07:37:16;;;;;;;0.00;0.00;;;12.60;99.90;;;;;;5051527;28;20188;-67
2022/12/29 07:39:42;;;;;;;0.00;0.00;;;12.60;99.90;;;;;;5051552;28;20181;-67
2022/12/29 07:42:08;;;;;;;0.00;0.00;;;12.60;99.90;;;;;;5051593;28;20208;-67
2022/12/29 07:44:33;;;;;;;0.00;0.00;;;12.60;99.90;;;;;;5051460;28;20209;-67
2022/12/29 07:46:59;;;;;;;0.00;0.00;;;12.60;99.90;;;;;;5051715;28;20185;-67
2022/12/29 07:49:25;;;;;;;0.00;0.00;;;12.60;99.90;;;;;;5051975;28;20180;-68
2022/12/29 07:51:50;;;;;;;0.00;0.00;;;12.60;99.90;;;;;;5051308;28;20209;-68
2022/12/29 07:54:18;;;;;;;0.00;0.00;;;12.70;99.90;;;;;;5052229;28;20170;-67
2022/12/29 07:56:44;;;;;;;0.00;0.00;;;12.70;99.90;;;;;;5051484;28;20638;-68
2022/12/29 07:59:09;;;;;;;0.00;0.00;;;12.70;99.90;;;;;;5052049;28;20185;-68
2022/12/29 08:01:35;;;;;;;0.00;0.00;;;12.80;99.90;;;;;;5051374;28;20576;-68
2022/12/29 08:04:00;;;;;;;0.00;0.00;;;12.80;99.90;;;;;;5049267;28;20188;-67
2022/12/29 08:06:26;;;;;;;0.00;0.00;;;12.90;99.70;;;;;;5050292;28;20575;-68
2022/12/29 08:08:51;;;;;;;0.00;0.00;;;13.00;99.70;;;;;;5045607;28;20186;-68
2022/12/29 08:11:17;;;;;;;0.00;0.00;;;13.00;99.50;;;;;;5050990;28;20237;-67
2022/12/29 08:13:42;;;;;;;0.00;0.00;;;13.00;99.60;;;;;;5051792;28;20182;-67
2022/12/29 08:16:08;;;;;;;0.00;0.00;;;13.00;99.50;;;;;;5051432;28;20629;-67
2022/12/29 08:18:34;;;;;;;0.00;0.00;;;13.00;99.60;;;;;;5051437;28;20192;-68
2022/12/29 08:21:03;;;;;;;0.00;0.00;;;13.00;99.40;;;;;;5051620;28;20632;-67
2022/12/29 08:23:29;;;;;;;0.00;0.00;;;13.00;99.20;;;;;;5050212;28;20181;-67
2022/12/29 08:26:03;;;;;;;0.00;0.00;;;13.00;99.20;;;;;;5051154;28;20276;-67
2022/12/29 08:28:29;;;;;;;0.00;0.00;;;13.00;99.30;;;;;;5050934;28;20620;-67
2022/12/29 08:30:58;;;;;;;0.00;0.00;;;13.00;99.00;;;;;;5051079;28;20265;-69
2022/12/29 08:33:24;;;;;;;0.00;0.00;;;13.00;99.10;;;;;;5049768;28;20231;-66
2022/12/29 08:35:49;;;;;;;0.00;0.00;;;13.00;99.20;;;;;;5051126;28;20177;-66
2022/12/29 08:38:15;;;;;;;0.00;0.00;;;13.10;99.20;;;;;;5051231;28;20189;-66
2022/12/29 08:40:41;;;;;;;0.00;0.00;;;13.10;98.70;;;;;;5051446;28;20205;-67
2022/12/29 08:43:07;;;;;;;0.00;0.00;;;13.20;98.60;;;;;;5051085;28;20707;-64
2022/12/29 08:45:32;;;;;;;0.00;0.00;;;13.20;98.60;;;;;;5051033;28;20228;-68
2022/12/29 08:47:58;;;;;;;0.00;0.00;;;13.20;98.60;;;;;;5051389;28;20276;-64
2022/12/29 08:50:23;;;;;;;0.00;0.00;;;13.30;98.30;;;;;;5051486;28;20174;-64
2022/12/29 08:52:49;;;;;;;0.00;0.00;;;13.30;98.50;;;;;;5051324;28;20227;-69
2022/12/29 08:55:14;;;;;;;0.00;0.00;;;13.30;98.40;;;;;;5050291;28;20223;-65
2022/12/29 08:57:40;;;;;;;0.00;0.00;;;13.30;97.90;;;;;;5051343;28;20266;-68
2022/12/29 09:00:06;;;;;;;0.00;0.00;;;13.40;98.10;;;;;;5051063;28;20184;-68
2022/12/29 09:02:32;;;;;;;0.00;0.00;;;13.40;98.00;;;;;;5051505;28;20531;-63
2022/12/29 09:04:58;;;;;;;0.00;0.00;;;13.40;97.90;;;;;;5051092;28;20177;-66
2022/12/29 09:07:24;;;;;;;0.00;0.00;;;13.40;98.10;;;;;;5051145;28;20265;-66
2022/12/29 09:09:50;;;;;;;0.00;0.00;;;13.40;98.00;;;;;;5051885;28;20700;-67
2022/12/29 09:12:17;;;;;;;0.00;0.00;;;13.40;98.20;;;;;;5051116;28;20314;-67
2022/12/29 09:14:44;;;;;;;0.00;0.00;;;13.40;98.40;;;;;;5051209;28;20178;-66
2022/12/29 09:19:53;;;;;;;0.00;0.00;;;13.40;98.10;;;;;;5053322;28;20277;-68
2022/12/29 09:22:19;;;;;;;0.00;0.00;;;13.40;98.20;;;;;;5054790;28;20260;-67
2022/12/29 09:24:44;;;;;;;0.00;0.00;;;13.40;98.20;;;;;;5054751;28;20189;-66
2022/12/29 09:27:10;;;;;;;0.00;0.00;;;13.40;98.50;;;;;;5054664;28;20284;-67
2022/12/29 09:29:36;;;;;;;0.00;0.00;;;13.40;98.20;;;;;;5054446;28;20181;-66
2022/12/29 09:32:01;;;;;;;0.00;0.00;;;13.40;98.30;;;;;;5054212;28;20219;-66
2022/12/29 09:34:27;;;;;;;0.00;0.00;;;13.50;98.40;;;;;;5054587;28;20177;-66
2022/12/29 09:36:52;;;;;;;0.00;0.00;;;13.50;98.60;;;;;;5054628;28;20265;-66
2022/12/29 09:39:18;;;;;;;0.00;0.00;;;13.40;98.60;;;;;;5054407;28;20510;-66
2022/12/29 09:42:02;;;;;;;0.00;0.00;;;13.40;98.70;;;;;;5054382;28;20179;-66
2022/12/29 09:45:11;;;;;;;0.10;0.10;;;13.40;98.90;;;;;;5046537;28;20174;-66
2022/12/29 09:47:37;;;;;;;0.00;0.00;;;13.40;99.10;;;;;;5032765;28;20201;-67
2022/12/29 09:50:33;;;;;;;0.10;0.10;;;13.30;99.10;;;;;;5053252;28;20530;-66
2022/12/29 09:53:01;;;;;;;0.00;0.00;;;13.30;99.40;;;;;;5052663;28;20249;-67
2022/12/29 09:55:38;;;;;;;0.00;0.00;;;13.30;99.40;;;;;;5053984;28;20182;-66
2022/12/29 09:58:11;;;;;;;0.00;0.00;;;13.40;99.60;;;;;;5052544;28;20603;-66
2022/12/29 10:00:50;;;;;;;0.00;0.00;;;13.30;99.60;;;;;;5054132;28;20645;-66
2022/12/29 10:03:19;;;;;;;0.10;0.10;;;13.30;99.70;;;;;;5053960;28;20177;-66
2022/12/29 10:06:13;;;;;;;0.00;0.00;;;13.40;99.70;;;;;;5052794;28;20703;-66
2022/12/29 10:09:00;;;;;;;0.00;0.00;;;13.40;99.70;;;;;;5041005;28;20172;-67
2022/12/29 10:11:37;;;;;;;0.00;0.00;;;13.40;99.70;;;;;;5053315;28;20225;-67
2022/12/29 10:14:27;;;;;;;0.10;0.10;;;13.50;99.80;;;;;;5053630;28;20188;-66
2022/12/29 10:17:28;;;;;;;0.00;0.00;;;13.50;99.80;;;;;;5053770;28;20209;-66
2022/12/29 10:20:11;;;;;;;0.00;0.00;;;13.50;99.70;;;;;;5053537;28;20256;-67
2022/12/29 10:22:59;;;;;;;0.00;0.00;;;13.60;99.70;;;;;;5038928;28;20173;-67
2022/12/29 10:25:28;;;;;;;0.00;0.00;;;13.60;99.90;;;;;;5053636;28;20178;-66
2022/12/29 10:27:58;;;;;;;0.00;0.00;;;13.60;99.90;;;;;;5053439;28;20264;-66
2022/12/29 10:30:24;;;;;;;0.00;0.00;;;13.60;99.90;;;;;;5037969;28;20254;-67
2022/12/29 10:33:01;;;;;;;0.00;0.00;;;13.50;99.90;;;;;;5053271;28;20723;-66
2022/12/29 10:35:33;;;;;;;0.00;0.00;;;13.50;99.90;;;;;;5053429;28;20188;-66
2022/12/29 10:38:05;;;;;;;0.00;0.00;;;13.50;99.90;;;;;;5053131;28;20185;-66
2022/12/29 10:40:47;;;;;;;0.00;0.00;;;13.40;99.90;;;;;;5053153;28;20184;-66
2022/12/29 10:43:24;;;;;;;0.00;0.00;;;13.20;99.90;;;;;;5053362;28;20181;-66
2022/12/29 10:45:50;;;;;;;0.08;0.08;;;13.00;99.90;;;;;;5053246;28;20268;-66
2022/12/29 10:48:33;;;;;;;0.13;0.13;;;12.90;99.90;;;;;;5053015;28;20189;-66
2022/12/29 10:51:05;;;;;;;0.00;0.00;;;12.70;99.90;;;;;;5052957;28;20196;-67
2022/12/29 10:53:40;;;;;;;0.00;0.00;;;12.60;99.90;;;;;;5053082;28;20227;-67
2022/12/29 10:56:36;;;;;;;0.38;0.05;;;12.40;99.90;;;;;;5052495;28;20611;-67
2022/12/29 10:59:37;;;;;;;0.00;0.00;;;12.30;99.90;;;;;;5052934;28;20212;-67
2022/12/29 11:02:11;;;;;;;0.00;0.00;;;12.10;99.90;;;;;;5026265;28;20178;-67
2022/12/29 11:04:45;;;;;;;0.00;0.00;;;12.10;99.90;;;;;;5049639;28;20672;-67
2022/12/29 11:07:12;;;;;;;0.10;0.10;;;12.20;99.90;;;;;;5052650;28;20695;-68
2022/12/29 11:09:40;;;;;;;1.23;0.65;;;12.20;99.90;;;;;;5052726;28;20185;-67
2022/12/29 11:12:23;;;;;;;0.45;0.45;;;12.20;99.90;;;;;;5052127;28;20954;-67
2022/12/29 11:15:09;;;;;;;0.00;0.00;;;12.10;99.90;;;;;;5052626;28;20181;-67
2022/12/29 11:18:10;;;;;;;0.00;0.00;;;12.10;99.90;;;;;;5051349;28;20763;-67
2022/12/29 11:20:38;;;;;;;0.00;0.00;;;12.20;99.90;;;;;;5039340;28;20192;-67
2022/12/29 11:23:21;;;;;;;0.00;0.00;;;12.20;99.90;;;;;;5052417;28;20180;-68
2022/12/29 11:25:51;;;;;;;0.00;0.00;;;12.30;99.90;;;;;;5052024;28;20177;-66
2022/12/29 11:28:17;;;;;;;0.00;0.00;;;12.50;99.90;;;;;;5047907;28;20568;-67
2022/12/29 11:30:43;;;;;;;0.00;0.00;;;12.60;99.90;;;;;;5051525;28;20178;-67
2022/12/29 11:33:09;;;;;;;0.00;0.00;;;12.60;99.90;;;;;;5052186;28;20216;-68
2022/12/29 11:35:36;;;;;;;0.00;0.00;;;12.60;99.90;;;;;;5052417;28;20181;-68
2022/12/29 11:38:04;;;;;;;0.00;0.00;;;12.60;99.90;;;;;;5052005;28;20193;-67
2022/12/29 11:40:30;;;;;;;0.00;0.00;;;12.70;99.90;;;;;;5038047;28;20177;-67
2022/12/29 11:43:04;;;;;;;0.00;0.00;;;12.80;99.90;;;;;;5051701;28;20191;-67
2022/12/29 11:45:33;;;;;;;0.00;0.00;;;12.80;99.90;;;;;;5051889;28;20200;-67
2022/12/29 11:48:05;;;;;;;0.00;0.00;;;12.90;99.90;;;;;;5051998;28;20207;-67
2022/12/29 11:50:33;;;;;;;0.00;0.00;;;13.00;99.90;;;;;;5052322;28;20174;-67
2022/12/29 11:53:03;;;;;;;0.00;0.00;;;13.10;99.90;;;;;;5051800;28;20224;-67
2022/12/29 11:55:30;;;;;;;0.00;0.00;;;13.10;99.90;;;;;;5052110;28;20209;-66
2022/12/29 11:58:01;;;;;;;0.00;0.00;;;13.10;99.90;;;;;;5051590;28;20229;-67
2022/12/29 12:00:28;;;;;;;0.00;0.00;;;13.10;99.90;;;;;;5052011;28;20205;-67
2022/12/29 12:03:03;;;;;;;0.10;0.10;;;13.10;99.90;;;;;;5051852;28;20193;-67
2022/12/29 12:05:53;;;;;;;0.00;0.00;;;13.10;99.90;;;;;;5051923;28;20193;-66
2022/12/29 12:08:39;;;;;;;0.00;0.00;;;13.10;99.90;;;;;;5051514;28;20201;-66
2022/12/29 12:11:20;;;;;;;0.00;0.00;;;13.10;99.90;;;;;;5046725;28;20327;-67
2022/12/29 12:13:57;;;;;;;0.00;0.00;;;13.10;99.90;;;;;;5045686;28;20671;-66
2022/12/29 12:16:43;;;;;;;0.00;0.00;;;13.10;99.90;;;;;;5051533;28;20268;-66
2022/12/29 12:19:38;;;;;;;0.13;0.13;;;13.10;99.90;;;;;;5050590;28;20541;-66
2022/12/29 12:22:27;;;;;;;0.00;0.00;;;13.20;99.90;;;;;;5051509;28;20185;-66
2022/12/29 12:25:01;;;;;;;0.08;0.08;;;13.30;99.90;;;;;;5051701;28;20216;-67
2022/12/29 12:27:39;;;;;;;0.00;0.00;;;13.50;99.90;;;;;;5049965;28;20602;-66
2022/12/29 12:30:28;;;;;;;0.00;0.00;;;13.60;99.90;;;;;;5051423;28;20267;-66
2022/12/29 12:33:02;;;;;;;0.00;0.00;;;13.80;99.90;;;;;;5051824;28;20611;-66
2022/12/29 12:35:46;;;;;;;0.47;0.47;;;13.90;99.90;;;;;;5052308;28;20636;-66
2022/12/29 12:38:55;;;;;;;0.00;0.00;;;14.10;99.90;;;;;;5050076;28;20196;-67
2022/12/29 12:41:43;;;;;;;0.00;0.00;;;14.20;99.90;;;;;;5028608;28;20184;-66
2022/12/29 12:44:23;;;;;;;0.00;0.00;;;14.20;99.90;;;;;;5048906;28;20197;-66
2022/12/29 12:47:18;;;;;;;0.00;0.00;;;14.00;99.90;;;;;;5051182;28;20656;-66
2022/12/29 12:50:02;;;;;;;0.00;0.00;;;14.00;99.90;;;;;;5036366;28;20202;-66
2022/12/29 12:52:48;;;;;;;0.00;0.00;;;13.90;99.90;;;;;;5047932;28;20699;-66
2022/12/29 12:55:55;;;;;;;0.00;0.00;;;13.80;99.90;;;;;;5054127;28;20185;-66
2022/12/29 12:58:38;;;;;;;0.00;0.00;;;13.70;99.90;;;;;;5011988;28;20182;-67
2022/12/29 13:01:32;;;;;;;0.00;0.00;;;13.70;99.90;;;;;;5052117;28;20193;-67
2022/12/29 13:04:26;;;;;;;0.00;0.00;;;13.70;99.90;;;;;;5054009;28;20196;-67
2022/12/29 13:07:10;;;;;;;0.00;0.00;;;13.60;99.90;;;;;;5054448;28;20182;-67
2022/12/29 13:10:09;;;;;;;0.00;0.00;;;13.60;99.90;;;;;;5054525;28;20641;-66
2022/12/29 13:12:47;;;;;;;0.00;0.00;;;13.50;99.90;;;;;;5054332;28;20233;-66
2022/12/29 13:15:39;;;;;;;0.00;0.00;;;13.50;99.90;;;;;;5053840;28;20173;-66
2022/12/29 13:18:30;;;;;;;0.00;0.00;;;13.40;99.90;;;;;;5058907;28;20186;-67
2022/12/29 13:21:22;;;;;;;0.00;0.00;;;13.30;99.90;;;;;;5054981;28;20654;-66
2022/12/29 13:24:39;;;;;;;0.00;0.00;;;13.40;99.90;;;;;;5051438;28;20599;-67
2022/12/29 13:27:28;;;;;;;0.00;0.00;;;13.40;99.90;;;;;;5025601;28;20244;-67
2022/12/29 13:30:10;;;;;;;0.00;0.00;;;13.40;99.90;;;;;;5052247;28;20173;-67
2022/12/29 13:33:06;;;;;;;0.00;0.00;;;13.40;99.90;;;;;;5053761;28;20586;-67
2022/12/29 13:35:56;;;;;;;0.10;0.10;;;13.30;99.90;;;;;;5034974;28;20178;-67
2022/12/29 13:38:42;;;;;;;0.00;0.00;;;13.20;99.90;;;;;;5034843;28;20185;-67
2022/12/29 13:41:16;;;;;;;0.00;0.00;;;13.20;99.90;;;;;;5045901;28;20181;-67
2022/12/29 13:43:44;;;;;;;0.00;0.00;;;13.20;99.90;;;;;;5054470;28;20234;-66
2022/12/29 13:46:18;;;;;;;0.00;0.00;;;13.20;99.90;;;;;;5054266;28;20204;-67
2022/12/29 13:48:58;;;;;;;0.00;0.00;;;13.10;99.90;;;;;;5053024;28;20184;-66
2022/12/29 13:51:25;;;;;;;0.00;0.00;;;13.10;99.90;;;;;;5052913;28;20272;-67